sensor_id;sensor_type;location;lat;lon;timestamp;pressure;altitude;pressure_sealevel;temperature;humidity
48882;BME280;57063;51.406;-2.402;2023-04-03T00:01:22;101971.34;;;3.24;91.24
48882;BME280;57063;51.406;-2.402;2023-04-03T00:03:48;101960.28;;;3.28;91.28
48882;BME280;57063;51.406;-2.402;2023-04-03T00:06:13;101946.69;;;3.12;91.87
48882;BME280;57063;51.406;-2.402;2023-04-03T00:08:39;101943.31;;;3.17;91.18
48882;BME280;57063;51.406;-2.402;2023-04-03T00:11:06;101942.41;;;3.26;91.61
48882;BME280;57063;51.406;-2.402;2023-04-03T00:13:32;101947.56;;;3.08;92.63
48882;BME280;57063;51.406;-2.402;2023-04-03T00:15:58;101950.97;;;2.97;93.79
48882;BME280;57063;51.406;-2.402;2023-04-03T00:18:24;101944.19;;;3.01;93.39
48882;BME280;57063;51.406;-2.402;2023-04-03T00:20:50;101946.72;;;2.95;93.91
48882;BME280;57063;51.406;-2.402;2023-04-03T00:23:15;101938.28;;;2.81;94.17
48882;BME280;57063;51.406;-2.402;2023-04-03T00:25:42;101947.56;;;2.97;94.85
48882;BME280;57063;51.406;-2.402;2023-04-03T00:28:08;101946.75;;;2.89;94.32
48882;BME280;57063;51.406;-2.402;2023-04-03T00:30:33;101961.19;;;2.82;95.66
48882;BME280;57063;51.406;-2.402;2023-04-03T00:32:59;101961.22;;;2.76;96.89
48882;BME280;57063;51.406;-2.402;2023-04-03T00:35:26;101963.72;;;2.99;95.20
48882;BME280;57063;51.406;-2.402;2023-04-03T00:37:52;101971.38;;;2.94;95.31
48882;BME280;57063;51.406;-2.402;2023-04-03T00:40:19;101967.16;;;2.67;96.49
48882;BME280;57063;51.406;-2.402;2023-04-03T00:42:47;101962.91;;;2.65;96.79
48882;BME280;57063;51.406;-2.402;2023-04-03T00:45:27;101969.72;;;2.69;97.19
48882;BME280;57063;51.406;-2.402;2023-04-03T00:47:53;101973.09;;;2.65;97.78
48882;BME280;57063;51.406;-2.402;2023-04-03T00:50:19;101962.06;;;2.78;96.78
48882;BME280;57063;51.406;-2.402;2023-04-03T00:52:45;101966.31;;;2.57;97.88
48882;BME280;57063;51.406;-2.402;2023-04-03T00:55:13;101964.59;;;2.50;98.29
48882;BME280;57063;51.406;-2.402;2023-04-03T00:57:40;101957.78;;;2.46;98.61
48882;BME280;57063;51.406;-2.402;2023-04-03T01:00:09;101969.72;;;2.44;99.50
48882;BME280;57063;51.406;-2.402;2023-04-03T01:02:35;101969.69;;;2.38;100.00
48882;BME280;57063;51.406;-2.402;2023-04-03T01:05:01;101956.09;;;2.36;100.00
48882;BME280;57063;51.406;-2.402;2023-04-03T01:07:29;101956.13;;;2.39;100.00
48882;BME280;57063;51.406;-2.402;2023-04-03T01:09:58;101968.84;;;2.34;100.00
48882;BME280;57063;51.406;-2.402;2023-04-03T01:12:25;101968.84;;;2.38;100.00
48882;BME280;57063;51.406;-2.402;2023-04-03T01:15:05;101954.41;;;2.32;100.00
48882;BME280;57063;51.406;-2.402;2023-04-03T01:17:44;101952.69;;;2.31;100.00
48882;BME280;57063;51.406;-2.402;2023-04-03T01:28:07;101961.19;;;2.36;100.00
48882;BME280;57063;51.406;-2.402;2023-04-03T01:30:39;101952.66;;;2.06;100.00
48882;BME280;57063;51.406;-2.402;2023-04-03T01:33:06;101940.78;;;2.08;100.00
48882;BME280;57063;51.406;-2.402;2023-04-03T01:35:32;101950.16;;;2.28;100.00
48882;BME280;57063;51.406;-2.402;2023-04-03T01:37:57;101937.41;;;2.17;100.00
48882;BME280;57063;51.406;-2.402;2023-04-03T01:40:22;101951.00;;;2.21;100.00
48882;BME280;57063;51.406;-2.402;2023-04-03T01:42:48;101951.84;;;2.23;100.00
48882;BME280;57063;51.406;-2.402;2023-04-03T01:45:13;101935.72;;;2.18;100.00
48882;BME280;57063;51.406;-2.402;2023-04-03T01:47:39;101945.03;;;2.12;100.00
48882;BME280;57063;51.406;-2.402;2023-04-03T01:50:04;101939.91;;;2.09;100.00
48882;BME280;57063;51.406;-2.402;2023-04-03T01:52:30;101946.72;;;2.17;100.00
48882;BME280;57063;51.406;-2.402;2023-04-03T01:54:55;101945.84;;;1.99;100.00
48882;BME280;57063;51.406;-2.402;2023-04-03T01:57:21;101965.41;;;2.11;100.00
48882;BME280;57063;51.406;-2.402;2023-04-03T01:59:46;101962.81;;;1.97;100.00
48882;BME280;57063;51.406;-2.402;2023-04-03T02:02:12;101941.59;;;1.93;100.00
48882;BME280;57063;51.406;-2.402;2023-04-03T02:04:40;101944.16;;;2.00;100.00
48882;BME280;57063;51.406;-2.402;2023-04-03T02:07:05;101955.19;;;1.91;100.00
48882;BME280;57063;51.406;-2.402;2023-04-03T02:09:30;101941.56;;;1.81;100.00
48882;BME280;57063;51.406;-2.402;2023-04-03T02:11:56;101956.00;;;1.84;100.00
48882;BME280;57063;51.406;-2.402;2023-04-03T02:14:21;101949.19;;;1.80;100.00
48882;BME280;57063;51.406;-2.402;2023-04-03T02:16:48;101950.84;;;1.70;100.00
48882;BME280;57063;51.406;-2.402;2023-04-03T02:19:14;101953.44;;;1.79;100.00
48882;BME280;57063;51.406;-2.402;2023-04-03T02:21:39;101950.03;;;1.71;100.00
48882;BME280;57063;51.406;-2.402;2023-04-03T02:24:05;101945.75;;;1.62;100.00
48882;BME280;57063;51.406;-2.402;2023-04-03T02:26:31;101953.38;;;1.65;100.00
48882;BME280;57063;51.406;-2.402;2023-04-03T02:28:56;101948.25;;;1.50;100.00
48882;BME280;57063;51.406;-2.402;2023-04-03T02:31:22;101939.72;;;1.43;100.00
48882;BME280;57063;51.406;-2.402;2023-04-03T02:33:47;101954.19;;;1.49;100.00
48882;BME280;57063;51.406;-2.402;2023-04-03T02:36:13;101962.63;;;1.42;100.00
48882;BME280;57063;51.406;-2.402;2023-04-03T02:38:38;101955.78;;;1.30;100.00
48882;BME280;57063;51.406;-2.402;2023-04-03T02:41:06;101951.53;;;1.29;100.00
48882;BME280;57063;51.406;-2.402;2023-04-03T02:43:32;101954.94;;;1.31;100.00
48882;BME280;57063;51.406;-2.402;2023-04-03T02:45:57;101954.06;;;1.27;100.00
48882;BME280;57063;51.406;-2.402;2023-04-03T02:48:23;101954.06;;;1.26;100.00
48882;BME280;57063;51.406;-2.402;2023-04-03T02:50:49;101955.75;;;1.32;100.00
48882;BME280;57063;51.406;-2.402;2023-04-03T02:53:15;101945.59;;;1.30;100.00
48882;BME280;57063;51.406;-2.402;2023-04-03T02:55:41;101935.47;;;1.44;100.00
48882;BME280;57063;51.406;-2.402;2023-04-03T02:58:07;101957.50;;;1.39;100.00
48882;BME280;57063;51.406;-2.402;2023-04-03T03:00:33;101950.69;;;1.32;100.00
48882;BME280;57063;51.406;-2.402;2023-04-03T03:02:58;101961.72;;;1.32;100.00
48882;BME280;57063;51.406;-2.402;2023-04-03T03:05:25;101958.31;;;1.28;100.00
48882;BME280;57063;51.406;-2.402;2023-04-03T03:07:50;101952.31;;;1.17;100.00
48882;BME280;57063;51.406;-2.402;2023-04-03T03:10:16;101942.88;;;0.99;100.00
48882;BME280;57063;51.406;-2.402;2023-04-03T03:12:41;101955.56;;;0.95;100.00
48882;BME280;57063;51.406;-2.402;2023-04-03T03:15:07;101957.25;;;0.91;100.00
48882;BME280;57063;51.406;-2.402;2023-04-03T03:17:33;101949.63;;;0.97;100.00
48882;BME280;57063;51.406;-2.402;2023-04-03T03:19:58;101949.53;;;0.82;100.00
48882;BME280;57063;51.406;-2.402;2023-04-03T03:22:25;101951.97;;;0.68;100.00
48882;BME280;57063;51.406;-2.402;2023-04-03T03:24:51;101961.28;;;0.64;100.00
48882;BME280;57063;51.406;-2.402;2023-04-03T03:27:16;101946.75;;;0.50;100.00
48882;BME280;57063;51.406;-2.402;2023-04-03T03:29:42;101960.25;;;0.46;100.00
48882;BME280;57063;51.406;-2.402;2023-04-03T03:32:07;101950.06;;;0.39;100.00
48882;BME280;57063;51.406;-2.402;2023-04-03T03:34:33;101953.38;;;0.32;100.00
48882;BME280;57063;51.406;-2.402;2023-04-03T03:36:58;101951.59;;;0.22;100.00
48882;BME280;57063;51.406;-2.402;2023-04-03T03:39:24;101941.38;;;0.16;100.00
48882;BME280;57063;51.406;-2.402;2023-04-03T03:41:50;101937.13;;;0.13;100.00
48882;BME280;57063;51.406;-2.402;2023-04-03T03:44:15;101950.78;;;0.26;100.00
48882;BME280;57063;51.406;-2.402;2023-04-03T03:46:40;101948.19;;;0.20;100.00
48882;BME280;57063;51.406;-2.402;2023-04-03T03:49:06;101955.75;;;0.15;100.00
48882;BME280;57063;51.406;-2.402;2023-04-03T03:51:31;101936.16;;;0.04;100.00
48882;BME280;57063;51.406;-2.402;2023-04-03T03:53:57;101945.41;;;-0.03;100.00
48882;BME280;57063;51.406;-2.402;2023-04-03T03:56:22;101948.09;;;0.11;100.00
48882;BME280;57063;51.406;-2.402;2023-04-03T03:58:48;101945.47;;;0.05;100.00
48882;BME280;57063;51.406;-2.402;2023-04-03T04:01:14;101946.34;;;0.05;100.00
48882;BME280;57063;51.406;-2.402;2023-04-03T04:03:40;101937.72;;;-0.08;100.00
48882;BME280;57063;51.406;-2.402;2023-04-03T04:06:06;101943.69;;;-0.06;100.00
48882;BME280;57063;51.406;-2.402;2023-04-03T04:08:31;101943.78;;;0.04;100.00
48882;BME280;57063;51.406;-2.402;2023-04-03T04:10:57;101945.34;;;-0.09;100.00
48882;BME280;57063;51.406;-2.402;2023-04-03T04:13:22;101952.06;;;-0.14;100.00
48882;BME280;57063;51.406;-2.402;2023-04-03T04:15:47;101957.97;;;-0.12;100.00
48882;BME280;57063;51.406;-2.402;2023-04-03T04:18:13;101944.41;;;-0.19;100.00
48882;BME280;57063;51.406;-2.402;2023-04-03T04:20:38;101935.03;;;-0.23;100.00
48882;BME280;57063;51.406;-2.402;2023-04-03T04:23:04;101928.22;;;-0.29;100.00
48882;BME280;57063;51.406;-2.402;2023-04-03T04:25:29;101935.06;;;-0.22;100.00
48882;BME280;57063;51.406;-2.402;2023-04-03T04:27:55;101935.91;;;-0.21;100.00
48882;BME280;57063;51.406;-2.402;2023-04-03T04:30:20;101939.25;;;-0.22;100.00
48882;BME280;57063;51.406;-2.402;2023-04-03T04:32:45;101939.38;;;-0.13;100.00
48882;BME280;57063;51.406;-2.402;2023-04-03T04:35:11;101929.97;;;-0.23;100.00
48882;BME280;57063;51.406;-2.402;2023-04-03T04:37:37;101930.69;;;-0.32;100.00
48882;BME280;57063;51.406;-2.402;2023-04-03T04:40:03;101931.72;;;-0.16;100.00
48882;BME280;57063;51.406;-2.402;2023-04-03T04:42:28;101924.03;;;-0.27;100.00
48882;BME280;57063;51.406;-2.402;2023-04-03T04:44:54;101935.91;;;-0.21;100.00
48882;BME280;57063;51.406;-2.402;2023-04-03T04:47:19;101934.09;;;-0.33;100.00
48882;BME280;57063;51.406;-2.402;2023-04-03T04:49:45;101932.44;;;-0.29;100.00
48882;BME280;57063;51.406;-2.402;2023-04-03T04:52:12;101941.81;;;-0.22;100.00
48882;BME280;57063;51.406;-2.402;2023-04-03T04:54:38;101934.88;;;-0.38;100.00
48882;BME280;57063;51.406;-2.402;2023-04-03T04:57:03;101945.91;;;-0.33;100.00
48882;BME280;57063;51.406;-2.402;2023-04-03T04:59:29;101941.56;;;-0.42;100.00
48882;BME280;57063;51.406;-2.402;2023-04-03T05:01:54;101937.44;;;-0.35;100.00
48882;BME280;57063;51.406;-2.402;2023-04-03T05:04:20;101936.69;;;-0.28;100.00
48882;BME280;57063;51.406;-2.402;2023-04-03T05:06:46;101933.09;;;-0.44;100.00
48882;BME280;57063;51.406;-2.402;2023-04-03T05:09:11;101939.06;;;-0.40;100.00
48882;BME280;57063;51.406;-2.402;2023-04-03T05:11:37;101937.31;;;-0.46;100.00
48882;BME280;57063;51.406;-2.402;2023-04-03T05:14:02;101935.66;;;-0.43;100.00
48882;BME280;57063;51.406;-2.402;2023-04-03T05:16:30;101924.69;;;-0.40;100.00
48882;BME280;57063;51.406;-2.402;2023-04-03T05:18:56;101940.81;;;-0.35;100.00
48882;BME280;57063;51.406;-2.402;2023-04-03T05:21:21;101930.66;;;-0.35;100.00
48882;BME280;57063;51.406;-2.402;2023-04-03T05:23:48;101926.56;;;-0.22;100.00
48882;BME280;57063;51.406;-2.402;2023-04-03T05:26:13;101935.81;;;-0.27;100.00
48882;BME280;57063;51.406;-2.402;2023-04-03T05:28:39;101933.47;;;-0.12;100.00
48882;BME280;57063;51.406;-2.402;2023-04-03T05:31:04;101925.00;;;-0.14;100.00
48882;BME280;57063;51.406;-2.402;2023-04-03T05:33:30;101924.25;;;-0.04;100.00
48882;BME280;57063;51.406;-2.402;2023-04-03T05:35:55;101930.97;;;-0.09;100.00
48882;BME280;57063;51.406;-2.402;2023-04-03T05:38:21;101924.22;;;-0.07;100.00
48882;BME280;57063;51.406;-2.402;2023-04-03T05:40:46;101934.47;;;0.03;100.00
48882;BME280;57063;51.406;-2.402;2023-04-03T05:43:12;101934.50;;;0.07;100.00
48882;BME280;57063;51.406;-2.402;2023-04-03T05:45:40;101935.31;;;0.05;100.00
48882;BME280;57063;51.406;-2.402;2023-04-03T05:48:05;101925.94;;;-0.03;100.00
48882;BME280;57063;51.406;-2.402;2023-04-03T05:50:30;101921.59;;;-0.16;100.00
48882;BME280;57063;51.406;-2.402;2023-04-03T05:52:57;101940.19;;;-0.17;100.00
48882;BME280;57063;51.406;-2.402;2023-04-03T05:55:24;101929.88;;;-0.31;100.00
48882;BME280;57063;51.406;-2.402;2023-04-03T05:57:49;101921.28;;;-0.42;100.00
48882;BME280;57063;51.406;-2.402;2023-04-03T06:00:15;101920.41;;;-0.46;100.00
48882;BME280;57063;51.406;-2.402;2023-04-03T06:02:41;101932.28;;;-0.41;100.00
48882;BME280;57063;51.406;-2.402;2023-04-03T06:05:08;101917.03;;;-0.45;100.00
48882;BME280;57063;51.406;-2.402;2023-04-03T06:07:34;101924.59;;;-0.48;100.00
48882;BME280;57063;51.406;-2.402;2023-04-03T06:09:59;101927.94;;;-0.52;100.00
48882;BME280;57063;51.406;-2.402;2023-04-03T06:12:25;101916.84;;;-0.60;100.00
48882;BME280;57063;51.406;-2.402;2023-04-03T06:14:51;101927.41;;;-0.25;100.00
48882;BME280;57063;51.406;-2.402;2023-04-03T06:17:17;101908.75;;;-0.31;100.00
48882;BME280;57063;51.406;-2.402;2023-04-03T06:19:43;101923.19;;;-0.24;100.00
48882;BME280;57063;51.406;-2.402;2023-04-03T06:22:09;101914.69;;;-0.29;100.00
48882;BME280;57063;51.406;-2.402;2023-04-03T06:24:34;101905.34;;;-0.30;100.00
48882;BME280;57063;51.406;-2.402;2023-04-03T06:27:00;101912.19;;;-0.23;100.00
48882;BME280;57063;51.406;-2.402;2023-04-03T06:29:25;101908.06;;;-0.15;100.00
48882;BME280;57063;51.406;-2.402;2023-04-03T06:31:51;101910.69;;;-0.07;100.00
48882;BME280;57063;51.406;-2.402;2023-04-03T06:34:17;101905.75;;;0.10;100.00
48882;BME280;57063;51.406;-2.402;2023-04-03T06:36:43;101910.88;;;0.13;100.00
48882;BME280;57063;51.406;-2.402;2023-04-03T06:39:14;101906.78;;;0.27;100.00
48882;BME280;57063;51.406;-2.402;2023-04-03T06:41:40;101914.53;;;0.42;100.00
48882;BME280;57063;51.406;-2.402;2023-04-03T06:44:06;101918.03;;;0.60;100.00
48882;BME280;57063;51.406;-2.402;2023-04-03T06:46:33;101906.19;;;0.60;100.00
48882;BME280;57063;51.406;-2.402;2023-04-03T06:48:58;101908.03;;;0.84;100.00
48882;BME280;57063;51.406;-2.402;2023-04-03T06:51:26;101921.81;;;1.22;100.00
48882;BME280;57063;51.406;-2.402;2023-04-03T06:53:53;101915.94;;;1.31;100.00
48882;BME280;57063;51.406;-2.402;2023-04-03T06:56:19;101917.63;;;1.36;100.00
48882;BME280;57063;51.406;-2.402;2023-04-03T06:58:45;101911.75;;;1.42;100.00
48882;BME280;57063;51.406;-2.402;2023-04-03T07:01:14;101916.09;;;1.66;100.00
48882;BME280;57063;51.406;-2.402;2023-04-03T07:03:40;101913.59;;;1.89;100.00
48882;BME280;57063;51.406;-2.402;2023-04-03T07:06:07;101924.66;;;2.08;100.00
48882;BME280;57063;51.406;-2.402;2023-04-03T07:08:33;101916.19;;;2.20;100.00
48882;BME280;57063;51.406;-2.402;2023-04-03T07:10:59;101924.69;;;2.25;100.00
48882;BME280;57063;51.406;-2.402;2023-04-03T07:13:24;101917.88;;;2.33;98.82
48882;BME280;57063;51.406;-2.402;2023-04-03T07:15:50;101937.41;;;2.51;97.77
48882;BME280;57063;51.406;-2.402;2023-04-03T07:18:16;101920.44;;;2.67;96.17
48882;BME280;57063;51.406;-2.402;2023-04-03T07:20:42;101927.13;;;3.23;93.16
48882;BME280;57063;51.406;-2.402;2023-04-03T07:23:08;101930.25;;;3.85;86.17
48882;BME280;57063;51.406;-2.402;2023-04-03T07:25:33;101917.63;;;3.57;86.59
48882;BME280;57063;51.406;-2.402;2023-04-03T07:27:59;101925.28;;;3.62;87.28
48882;BME280;57063;51.406;-2.402;2023-04-03T07:30:24;101923.44;;;3.82;86.09
48882;BME280;57063;51.406;-2.402;2023-04-03T07:32:50;101926.09;;;4.83;81.47
48882;BME280;57063;51.406;-2.402;2023-04-03T07:35:16;101922.34;;;5.84;76.99
48882;BME280;57063;51.406;-2.402;2023-04-03T07:37:42;101929.72;;;7.53;68.44
48882;BME280;57063;51.406;-2.402;2023-04-03T07:40:08;101930.06;;;8.86;61.96
48882;BME280;57063;51.406;-2.402;2023-04-03T07:42:34;101939.78;;;9.38;59.06
48882;BME280;57063;51.406;-2.402;2023-04-03T07:45:01;101939.03;;;10.49;55.00
48882;BME280;57063;51.406;-2.402;2023-04-03T07:47:27;101926.19;;;9.63;56.53
48882;BME280;57063;51.406;-2.402;2023-04-03T07:49:52;101928.16;;;10.89;53.92
48882;BME280;57063;51.406;-2.402;2023-04-03T07:52:18;101935.91;;;12.70;49.28
48882;BME280;57063;51.406;-2.402;2023-04-03T07:54:43;101925.94;;;12.18;49.44
48882;BME280;57063;51.406;-2.402;2023-04-03T07:57:09;101930.19;;;11.99;49.72
48882;BME280;57063;51.406;-2.402;2023-04-03T07:59:34;101935.28;;;13.82;45.02
48882;BME280;57063;51.406;-2.402;2023-04-03T08:02:00;101936.94;;;14.73;41.88
48882;BME280;57063;51.406;-2.402;2023-04-03T08:04:26;101929.59;;;17.27;37.60
48882;BME280;57063;51.406;-2.402;2023-04-03T08:06:52;101946.13;;;17.55;35.92
48882;BME280;57063;51.406;-2.402;2023-04-03T08:09:18;101929.81;;;17.66;35.23
48882;BME280;57063;51.406;-2.402;2023-04-03T08:11:44;101942.41;;;18.53;34.38
48882;BME280;57063;51.406;-2.402;2023-04-03T08:14:10;101948.69;;;18.51;35.31
48882;BME280;57063;51.406;-2.402;2023-04-03T08:16:42;101949.09;;;19.21;34.21
48882;BME280;57063;51.406;-2.402;2023-04-03T08:19:08;101933.69;;;19.66;31.10
48882;BME280;57063;51.406;-2.402;2023-04-03T08:21:33;101936.28;;;19.42;32.52
48882;BME280;57063;51.406;-2.402;2023-04-03T08:23:59;101943.91;;;20.66;31.80
48882;BME280;57063;51.406;-2.402;2023-04-03T08:26:24;101937.47;;;21.04;32.16
48882;BME280;57063;51.406;-2.402;2023-04-03T08:28:51;101942.00;;;20.90;31.94
48882;BME280;57063;51.406;-2.402;2023-04-03T08:31:18;101949.25;;;21.66;30.68
48882;BME280;57063;51.406;-2.402;2023-04-03T08:33:45;101941.72;;;21.61;29.65
48882;BME280;57063;51.406;-2.402;2023-04-03T08:36:21;101952.72;;;21.55;31.45
48882;BME280;57063;51.406;-2.402;2023-04-03T08:38:48;101944.97;;;21.08;28.84
48882;BME280;57063;51.406;-2.402;2023-04-03T08:41:20;101956.63;;;22.04;30.22
48882;BME280;57063;51.406;-2.402;2023-04-03T08:44:14;101959.97;;;22.06;30.14
48882;BME280;57063;51.406;-2.402;2023-04-03T08:46:54;101954.53;;;20.40;31.76
48882;BME280;57063;51.406;-2.402;2023-04-03T08:49:46;101944.47;;;21.92;30.92
48882;BME280;57063;51.406;-2.402;2023-04-03T08:52:20;101941.97;;;21.35;30.30
48882;BME280;57063;51.406;-2.402;2023-04-03T08:54:57;101946.19;;;19.76;32.70
48882;BME280;57063;51.406;-2.402;2023-04-03T08:57:34;101946.81;;;20.15;32.37
48882;BME280;57063;51.406;-2.402;2023-04-03T09:00:14;101940.88;;;19.52;33.77
48882;BME280;57063;51.406;-2.402;2023-04-03T09:02:44;101940.94;;;21.27;32.37
48882;BME280;57063;51.406;-2.402;2023-04-03T09:05:13;101938.41;;;21.25;31.17
48882;BME280;57063;51.406;-2.402;2023-04-03T09:07:44;101942.69;;;21.26;32.59
48882;BME280;57063;51.406;-2.402;2023-04-03T09:10:13;101947.25;;;19.73;33.79
48882;BME280;57063;51.406;-2.402;2023-04-03T09:15:33;101946.81;;;19.66;34.11
48882;BME280;57063;51.406;-2.402;2023-04-03T09:18:04;101938.88;;;20.27;34.26
48882;BME280;57063;51.406;-2.402;2023-04-03T09:23:03;101949.34;;;20.63;32.52
48882;BME280;57063;51.406;-2.402;2023-04-03T09:25:36;101950.78;;;18.71;34.56
48882;BME280;57063;51.406;-2.402;2023-04-03T09:28:03;101941.56;;;19.66;34.41
48882;BME280;57063;51.406;-2.402;2023-04-03T09:30:30;101933.41;;;19.21;34.76
48882;BME280;57063;51.406;-2.402;2023-04-03T09:32:56;101927.69;;;18.91;35.08
48882;BME280;57063;51.406;-2.402;2023-04-03T09:35:31;101930.44;;;19.39;34.52
48882;BME280;57063;51.406;-2.402;2023-04-03T09:38:14;101918.97;;;18.65;35.79
48882;BME280;57063;51.406;-2.402;2023-04-03T09:40:44;101922.34;;;18.41;35.44
48882;BME280;57063;51.406;-2.402;2023-04-03T09:45:43;101906.81;;;19.28;35.77
48882;BME280;57063;51.406;-2.402;2023-04-03T09:48:19;101915.66;;;19.75;35.04
48882;BME280;57063;51.406;-2.402;2023-04-03T09:55:53;101913.78;;;19.77;34.35
48882;BME280;57063;51.406;-2.402;2023-04-03T09:58:30;101910.22;;;19.65;35.86
48882;BME280;57063;51.406;-2.402;2023-04-03T10:01:00;101912.44;;;18.19;37.48
48882;BME280;57063;51.406;-2.402;2023-04-03T10:03:29;101917.22;;;16.43;40.29
48882;BME280;57063;51.406;-2.402;2023-04-03T10:05:56;101914.75;;;16.56;40.83
48882;BME280;57063;51.406;-2.402;2023-04-03T10:14:10;101914.19;;;16.51;41.23
48882;BME280;57063;51.406;-2.402;2023-04-03T10:16:47;101917.00;;;18.03;38.66
48882;BME280;57063;51.406;-2.402;2023-04-03T10:22:22;101920.72;;;15.98;39.70
48882;BME280;57063;51.406;-2.402;2023-04-03T10:25:18;101904.94;;;15.85;40.56
48882;BME280;57063;51.406;-2.402;2023-04-03T10:28:05;101921.44;;;14.52;42.61
48882;BME280;57063;51.406;-2.402;2023-04-03T10:30:47;101911.53;;;14.26;43.61
48882;BME280;57063;51.406;-2.402;2023-04-03T10:33:39;101907.09;;;13.36;46.62
48882;BME280;57063;51.406;-2.402;2023-04-03T10:44:14;101912.41;;;15.44;42.60
48882;BME280;57063;51.406;-2.402;2023-04-03T10:46:52;101911.22;;;14.67;43.17
48882;BME280;57063;51.406;-2.402;2023-04-03T10:50:01;101910.56;;;14.63;43.75
48882;BME280;57063;51.406;-2.402;2023-04-03T10:52:39;101899.41;;;15.44;43.01
48882;BME280;57063;51.406;-2.402;2023-04-03T10:57:57;101896.84;;;15.90;40.77
48882;BME280;57063;51.406;-2.402;2023-04-03T11:00:35;101892.88;;;14.70;43.04
48882;BME280;57063;51.406;-2.402;2023-04-03T11:03:11;101883.28;;;14.20;44.05
48882;BME280;57063;51.406;-2.402;2023-04-03T11:05:45;101893.81;;;14.51;45.08
48882;BME280;57063;51.406;-2.402;2023-04-03T11:08:24;101897.31;;;13.03;46.26
48882;BME280;57063;51.406;-2.402;2023-04-03T11:10:53;101892.28;;;12.61;47.58
48882;BME280;57063;51.406;-2.402;2023-04-03T11:13:31;101883.34;;;11.83;49.18
48882;BME280;57063;51.406;-2.402;2023-04-03T11:15:58;101894.75;;;12.21;49.64
48882;BME280;57063;51.406;-2.402;2023-04-03T11:18:41;101883.50;;;13.98;45.97
48882;BME280;57063;51.406;-2.402;2023-04-03T11:21:16;101878.81;;;15.55;42.97
48882;BME280;57063;51.406;-2.402;2023-04-03T11:23:47;101872.94;;;15.67;42.01
48882;BME280;57063;51.406;-2.402;2023-04-03T11:26:18;101870.69;;;16.52;40.75
48882;BME280;57063;51.406;-2.402;2023-04-03T11:28:44;101877.16;;;14.03;43.37
48882;BME280;57063;51.406;-2.402;2023-04-03T11:37:13;101875.50;;;16.43;39.48
48882;BME280;57063;51.406;-2.402;2023-04-03T11:39:50;101879.69;;;16.01;40.30
48882;BME280;57063;51.406;-2.402;2023-04-03T11:42:37;101864.81;;;15.73;40.73
48882;BME280;57063;51.406;-2.402;2023-04-03T11:48:00;101876.50;;;14.85;43.00
48882;BME280;57063;51.406;-2.402;2023-04-03T11:50:39;101875.66;;;14.85;42.56
48882;BME280;57063;51.406;-2.402;2023-04-03T11:53:43;101853.91;;;14.70;42.81
48882;BME280;57063;51.406;-2.402;2023-04-03T12:12:36;101814.84;;;16.70;40.15
48882;BME280;57063;51.406;-2.402;2023-04-03T12:17:41;101816.88;;;17.35;38.10
48882;BME280;57063;51.406;-2.402;2023-04-03T12:23:37;101816.09;;;18.27;37.10
48882;BME280;57063;51.406;-2.402;2023-04-03T12:26:23;101812.28;;;18.57;36.87
48882;BME280;57063;51.406;-2.402;2023-04-03T12:28:52;101815.50;;;19.47;36.46
48882;BME280;57063;51.406;-2.402;2023-04-03T12:31:19;101807.28;;;18.54;35.44
48882;BME280;57063;51.406;-2.402;2023-04-03T12:34:09;101810.84;;;18.27;37.19
48882;BME280;57063;51.406;-2.402;2023-04-03T12:36:48;101805.16;;;17.82;37.60
48882;BME280;57063;51.406;-2.402;2023-04-03T12:39:25;101809.16;;;17.88;39.05
48882;BME280;57063;51.406;-2.402;2023-04-03T12:47:37;101788.16;;;19.51;35.13
48882;BME280;57063;51.406;-2.402;2023-04-03T13:21:20;101778.69;;;17.34;37.69
48882;BME280;57063;51.406;-2.402;2023-04-03T13:23:53;101768.06;;;17.37;37.95
48882;BME280;57063;51.406;-2.402;2023-04-03T13:31:43;101763.25;;;16.03;39.64
48882;BME280;57063;51.406;-2.402;2023-04-03T13:34:19;101750.72;;;16.10;40.26
48882;BME280;57063;51.406;-2.402;2023-04-03T13:44:37;101743.13;;;14.51;43.67
48882;BME280;57063;51.406;-2.402;2023-04-03T13:47:18;101753.06;;;14.61;44.06
48882;BME280;57063;51.406;-2.402;2023-04-03T13:55:33;101742.38;;;13.10;46.47
48882;BME280;57063;51.406;-2.402;2023-04-03T14:07:48;101726.38;;;12.25;47.57
48882;BME280;57063;51.406;-2.402;2023-04-03T14:11:20;101711.38;;;12.52;47.18
48882;BME280;57063;51.406;-2.402;2023-04-03T14:24:56;101701.19;;;12.28;47.92
48882;BME280;57063;51.406;-2.402;2023-04-03T14:32:51;101699.03;;;11.98;50.62
48882;BME280;57063;51.406;-2.402;2023-04-03T14:35:24;101693.34;;;12.11;50.13
48882;BME280;57063;51.406;-2.402;2023-04-03T14:41:09;101687.66;;;12.03;50.40
48882;BME280;57063;51.406;-2.402;2023-04-03T14:50:26;101677.56;;;11.96;50.86
48882;BME280;57063;51.406;-2.402;2023-04-03T14:52:55;101676.69;;;11.97;49.59
48882;BME280;57063;51.406;-2.402;2023-04-03T14:55:22;101673.44;;;11.92;49.61
48882;BME280;57063;51.406;-2.402;2023-04-03T14:57:48;101678.84;;;11.86;50.04
48882;BME280;57063;51.406;-2.402;2023-04-03T15:00:18;101668.63;;;12.04;50.29
48882;BME280;57063;51.406;-2.402;2023-04-03T15:02:44;101677.72;;;11.93;50.19
48882;BME280;57063;51.406;-2.402;2023-04-03T15:05:22;101679.66;;;11.88;50.19
48882;BME280;57063;51.406;-2.402;2023-04-03T15:08:00;101669.03;;;11.94;49.47
48882;BME280;57063;51.406;-2.402;2023-04-03T15:10:30;101657.25;;;11.87;49.25
48882;BME280;57063;51.406;-2.402;2023-04-03T15:12:56;101668.50;;;11.86;49.51
48882;BME280;57063;51.406;-2.402;2023-04-03T15:15:23;101664.09;;;11.47;49.49
48882;BME280;57063;51.406;-2.402;2023-04-03T15:17:54;101650.66;;;11.60;50.53
48882;BME280;57063;51.406;-2.402;2023-04-03T15:20:22;101641.50;;;11.73;50.38
48882;BME280;57063;51.406;-2.402;2023-04-03T15:22:48;101649.38;;;11.70;52.60
48882;BME280;57063;51.406;-2.402;2023-04-03T15:25:16;101645.03;;;11.70;50.84
48882;BME280;57063;51.406;-2.402;2023-04-03T15:27:44;101629.06;;;11.81;49.84
48882;BME280;57063;51.406;-2.402;2023-04-03T15:30:18;101634.13;;;11.64;50.87
48882;BME280;57063;51.406;-2.402;2023-04-03T15:32:45;101645.47;;;11.80;50.69